createdAt,value
2018-12-06T00:00:20.051Z,1004.26
2018-12-06T00:01:20.638Z,1004.23
2018-12-06T00:02:21.224Z,1004.26
2018-12-06T00:03:21.822Z,1004.25
2018-12-06T00:04:22.418Z,1004.24
2018-12-06T00:05:23.022Z,1004.27
2018-12-06T00:06:23.622Z,1004.24
2018-12-06T00:07:24.219Z,1004.24
2018-12-06T00:08:24.883Z,1004.22
2018-12-06T00:09:25.474Z,1004.21
2018-12-06T00:10:26.059Z,1004.26
2018-12-06T00:11:26.666Z,1004.19
2018-12-06T00:12:27.273Z,1004.16
2018-12-06T00:13:27.850Z,1004.19
2018-12-06T00:14:28.450Z,1004.19
2018-12-06T00:15:29.093Z,1004.14
2018-12-06T00:16:29.656Z,1004.14
2018-12-06T00:17:30.250Z,1004.11
2018-12-06T00:18:30.839Z,1004.19
2018-12-06T00:19:31.435Z,1004.14
2018-12-06T00:20:32.034Z,1004.18
2018-12-06T00:21:32.634Z,1004.25
2018-12-06T00:22:33.231Z,1004.23
2018-12-06T00:23:33.831Z,1004.19
2018-12-06T00:24:34.429Z,1004.16
2018-12-06T00:25:35.025Z,1004.12
2018-12-06T00:26:35.619Z,1004.11
2018-12-06T00:27:36.215Z,1004.13
2018-12-06T00:28:36.813Z,1004.11
2018-12-06T00:29:37.407Z,1004.14
2018-12-06T00:30:37.995Z,1004.09
2018-12-06T00:31:38.595Z,1004.05
2018-12-06T00:32:39.191Z,1004.03
2018-12-06T00:33:39.800Z,1004.02
2018-12-06T00:34:40.389Z,1004.05
2018-12-06T00:35:40.982Z,1003.99
2018-12-06T00:36:41.572Z,1003.98
2018-12-06T00:37:42.172Z,1003.98
2018-12-06T00:38:42.769Z,1003.98
2018-12-06T00:39:43.366Z,1003.92
2018-12-06T00:40:43.966Z,1003.89
2018-12-06T00:41:44.566Z,1003.88
2018-12-06T00:42:45.157Z,1003.86
2018-12-06T00:43:45.950Z,1003.82
2018-12-06T00:44:46.544Z,1003.84
2018-12-06T00:45:47.149Z,1003.82
2018-12-06T00:46:47.744Z,1003.77
2018-12-06T00:47:48.339Z,1003.81
2018-12-06T00:48:48.933Z,1003.77
2018-12-06T00:49:49.538Z,1003.75
2018-12-06T00:50:50.132Z,1003.73
2018-12-06T00:51:50.729Z,1003.73
2018-12-06T00:52:51.326Z,1003.81
2018-12-06T00:53:51.917Z,1003.76
2018-12-06T00:54:52.514Z,1003.80
2018-12-06T00:55:53.114Z,1003.80
2018-12-06T00:56:53.725Z,1003.79
2018-12-06T00:57:54.306Z,1003.75
2018-12-06T00:58:54.902Z,1003.75
2018-12-06T00:59:55.486Z,1003.75
2018-12-06T01:00:56.101Z,1003.79
2018-12-06T01:01:56.704Z,1003.78
2018-12-06T01:02:57.290Z,1003.76
2018-12-06T01:03:57.881Z,1003.78
2018-12-06T01:04:58.468Z,1003.78
2018-12-06T01:05:59.067Z,1003.77
2018-12-06T01:06:59.663Z,1003.78
2018-12-06T01:08:00.261Z,1003.82
2018-12-06T01:09:00.859Z,1003.84
2018-12-06T01:10:01.461Z,1003.81
2018-12-06T01:11:02.057Z,1003.80
2018-12-06T01:12:02.655Z,1003.78
2018-12-06T01:13:03.256Z,1003.75
2018-12-06T01:14:03.855Z,1003.74
2018-12-06T01:15:04.455Z,1003.76
2018-12-06T01:16:05.048Z,1003.73
2018-12-06T01:17:05.649Z,1003.71
2018-12-06T01:18:06.239Z,1003.74
2018-12-06T01:19:06.837Z,1003.79
2018-12-06T01:20:07.430Z,1003.68
2018-12-06T01:21:08.023Z,1003.72
2018-12-06T01:22:08.619Z,1003.73
2018-12-06T01:23:09.219Z,1003.71
2018-12-06T01:24:09.818Z,1003.71
2018-12-06T01:25:10.417Z,1003.74
2018-12-06T01:26:11.013Z,1003.74
2018-12-06T01:27:11.603Z,1003.76
2018-12-06T01:28:12.205Z,1003.75
2018-12-06T01:29:12.788Z,1003.74
2018-12-06T01:30:13.387Z,1003.73
2018-12-06T01:31:13.994Z,1003.73
2018-12-06T01:32:14.576Z,1003.73
2018-12-06T01:33:15.173Z,1003.78
2018-12-06T01:34:15.786Z,1003.68
2018-12-06T01:35:16.385Z,1003.69
2018-12-06T01:36:16.983Z,1003.71
2018-12-06T01:37:17.582Z,1003.70
2018-12-06T01:38:18.195Z,1003.70
2018-12-06T01:39:18.838Z,1003.70
2018-12-06T01:40:19.382Z,1003.70
2018-12-06T01:41:19.984Z,1003.70
2018-12-06T01:42:20.576Z,1003.72
2018-12-06T01:43:21.171Z,1003.70
2018-12-06T01:44:21.781Z,1003.69
2018-12-06T01:45:22.374Z,1003.65
2018-12-06T01:46:22.982Z,1003.70
2018-12-06T01:47:23.614Z,1003.72
2018-12-06T01:48:24.203Z,1003.71
2018-12-06T01:49:24.794Z,1003.69
2018-12-06T01:50:25.392Z,1003.70
2018-12-06T01:51:25.996Z,1003.69
2018-12-06T01:52:26.598Z,1003.68
2018-12-06T01:53:27.198Z,1003.70
2018-12-06T01:54:27.797Z,1003.67
2018-12-06T01:55:28.375Z,1003.66
2018-12-06T01:56:28.982Z,1003.70
2018-12-06T01:57:29.582Z,1003.70
2018-12-06T01:58:30.194Z,1003.70
2018-12-06T01:59:30.771Z,1003.75
2018-12-06T02:00:31.373Z,1003.66
2018-12-06T02:01:31.967Z,1003.67
2018-12-06T02:02:32.556Z,1003.67
2018-12-06T02:03:33.150Z,1003.68
2018-12-06T02:04:33.758Z,1003.68
2018-12-06T02:05:34.358Z,1003.65
2018-12-06T02:06:34.957Z,1003.66
2018-12-06T02:07:35.553Z,1003.63
2018-12-06T02:08:36.150Z,1003.66
2018-12-06T02:09:36.741Z,1003.60
2018-12-06T02:10:37.342Z,1003.63
2018-12-06T02:11:37.938Z,1003.65
2018-12-06T02:12:38.535Z,1003.58
2018-12-06T02:13:39.135Z,1003.64
2018-12-06T02:14:39.742Z,1003.63
2018-12-06T02:15:40.336Z,1003.61
2018-12-06T02:16:41.034Z,1003.61
2018-12-06T02:17:41.528Z,1003.62
2018-12-06T02:18:42.124Z,1003.63
2018-12-06T02:19:42.717Z,1003.62
2018-12-06T02:20:43.317Z,1003.60
2018-12-06T02:21:43.908Z,1003.61
2018-12-06T02:22:44.507Z,1003.64
2018-12-06T02:23:45.104Z,1003.64
2018-12-06T02:24:45.702Z,1003.65
2018-12-06T02:25:46.315Z,1003.61
2018-12-06T02:26:46.891Z,1003.69
2018-12-06T02:27:47.482Z,1003.63
2018-12-06T02:28:48.085Z,1003.65
2018-12-06T02:29:48.672Z,1003.65
2018-12-06T02:30:49.266Z,1003.63
2018-12-06T02:31:49.867Z,1003.63
2018-12-06T02:32:50.469Z,1003.62
2018-12-06T02:33:51.065Z,1003.64
2018-12-06T02:34:51.671Z,1003.63
2018-12-06T02:35:52.265Z,1003.59
2018-12-06T02:36:52.868Z,1003.62
2018-12-06T02:37:53.465Z,1003.56
2018-12-06T02:38:54.078Z,1003.56
2018-12-06T02:39:54.659Z,1003.54
2018-12-06T02:40:55.250Z,1003.53
2018-12-06T02:41:55.851Z,1003.53
2018-12-06T02:42:56.451Z,1003.51
2018-12-06T02:43:57.049Z,1003.49
2018-12-06T02:44:57.653Z,1003.52
2018-12-06T02:45:58.250Z,1003.54
2018-12-06T02:46:58.851Z,1003.53
2018-12-06T02:47:59.448Z,1003.54
2018-12-06T02:49:00.051Z,1003.55
2018-12-06T02:50:00.647Z,1003.52
2018-12-06T02:51:01.239Z,1003.54
2018-12-06T02:52:01.843Z,1003.55
2018-12-06T02:53:02.439Z,1003.55
2018-12-06T02:54:03.036Z,1003.58
2018-12-06T02:55:03.628Z,1003.56
2018-12-06T02:56:04.226Z,1003.56
2018-12-06T02:57:04.828Z,1003.56
2018-12-06T02:58:05.427Z,1003.60
2018-12-06T02:59:06.021Z,1003.61
2018-12-06T03:00:06.627Z,1003.62
2018-12-06T03:01:07.224Z,1003.65
2018-12-06T03:02:07.822Z,1003.67
2018-12-06T03:03:08.415Z,1003.63
2018-12-06T03:04:09.016Z,1003.64
2018-12-06T03:05:09.617Z,1003.68
2018-12-06T03:06:10.213Z,1003.62
2018-12-06T03:07:10.815Z,1003.63
2018-12-06T03:08:11.417Z,1003.59
2018-12-06T03:09:12.012Z,1003.64
2018-12-06T03:10:12.607Z,1003.61
2018-12-06T03:11:13.207Z,1003.59
2018-12-06T03:12:13.807Z,1003.61
2018-12-06T03:13:14.397Z,1003.63
2018-12-06T03:14:15.010Z,1003.58
2018-12-06T03:15:15.598Z,1003.60
2018-12-06T03:16:16.188Z,1003.57
2018-12-06T03:17:16.797Z,1003.63
2018-12-06T03:18:17.387Z,1003.63
2018-12-06T03:19:17.989Z,1003.62
2018-12-06T03:20:18.591Z,1003.62
2018-12-06T03:21:19.191Z,1003.60
2018-12-06T03:22:19.781Z,1003.60
2018-12-06T03:23:20.374Z,1003.57
2018-12-06T03:24:20.972Z,1003.57
2018-12-06T03:25:21.574Z,1003.56
2018-12-06T03:26:22.163Z,1003.61
2018-12-06T03:27:22.756Z,1003.67
2018-12-06T03:28:23.355Z,1003.71
2018-12-06T03:29:23.962Z,1003.67
2018-12-06T03:30:24.555Z,1003.72
2018-12-06T03:31:25.152Z,1003.71
2018-12-06T03:32:25.744Z,1003.76
2018-12-06T03:33:26.365Z,1003.72
2018-12-06T03:34:26.926Z,1003.77
2018-12-06T03:35:27.528Z,1003.82
2018-12-06T03:36:28.133Z,1003.77
2018-12-06T03:37:28.727Z,1003.77
2018-12-06T03:38:29.317Z,1003.75
2018-12-06T03:39:29.924Z,1003.80
2018-12-06T03:40:30.523Z,1003.76
2018-12-06T03:41:31.121Z,1003.73
2018-12-06T03:42:31.726Z,1003.73
2018-12-06T03:43:32.310Z,1003.78
2018-12-06T03:44:32.914Z,1003.79
2018-12-06T03:45:33.509Z,1003.79
2018-12-06T03:46:34.109Z,1003.83
2018-12-06T03:47:34.707Z,1003.82
2018-12-06T03:48:35.302Z,1003.80
2018-12-06T03:49:35.903Z,1003.86
2018-12-06T03:50:36.505Z,1003.81
2018-12-06T03:51:37.101Z,1003.82
2018-12-06T03:52:37.703Z,1003.77
2018-12-06T03:53:38.294Z,1003.79
2018-12-06T03:54:38.886Z,1003.82
2018-12-06T03:55:39.475Z,1003.81
2018-12-06T03:56:40.074Z,1003.82
2018-12-06T03:57:40.676Z,1003.77
2018-12-06T03:58:41.275Z,1003.79
2018-12-06T03:59:41.868Z,1003.84
2018-12-06T04:00:42.468Z,1003.82
2018-12-06T04:01:43.063Z,1003.83
2018-12-06T04:02:43.660Z,1003.81
2018-12-06T04:03:44.261Z,1003.84
2018-12-06T04:04:44.860Z,1003.85
2018-12-06T04:05:45.453Z,1003.84
2018-12-06T04:06:46.041Z,1003.87
2018-12-06T04:07:46.644Z,1003.88
2018-12-06T04:08:47.249Z,1003.91
2018-12-06T04:09:47.845Z,1003.90
2018-12-06T04:10:48.442Z,1003.94
2018-12-06T04:11:49.039Z,1003.96
2018-12-06T04:12:49.641Z,1003.94
2018-12-06T04:13:50.240Z,1003.96
2018-12-06T04:14:50.841Z,1003.94
2018-12-06T04:15:51.434Z,1003.92
2018-12-06T04:16:52.036Z,1003.98
2018-12-06T04:17:52.635Z,1003.99
2018-12-06T04:18:53.238Z,1003.98
2018-12-06T04:19:53.842Z,1004.01
2018-12-06T04:20:54.428Z,1004.02
2018-12-06T04:21:55.034Z,1004.03
2018-12-06T04:22:55.635Z,1003.96
2018-12-06T04:23:56.220Z,1003.96
2018-12-06T04:24:56.812Z,1003.98
2018-12-06T04:25:57.417Z,1003.97
2018-12-06T04:26:58.018Z,1003.99
2018-12-06T04:27:58.620Z,1003.96
2018-12-06T04:28:59.219Z,1003.98
2018-12-06T04:29:59.812Z,1003.97
2018-12-06T04:31:00.405Z,1003.96
2018-12-06T04:32:00.994Z,1003.95
2018-12-06T04:33:01.594Z,1003.97
2018-12-06T04:34:02.186Z,1003.95
2018-12-06T04:35:02.792Z,1003.98
2018-12-06T04:36:03.404Z,1004.00
2018-12-06T04:37:03.984Z,1004.02
2018-12-06T04:38:04.600Z,1004.01
2018-12-06T04:39:05.193Z,1004.08
2018-12-06T04:40:05.792Z,1004.11
2018-12-06T04:41:06.394Z,1004.12
2018-12-06T04:42:06.993Z,1004.18
2018-12-06T04:43:07.593Z,1004.18
2018-12-06T04:44:08.192Z,1004.18
2018-12-06T04:45:08.793Z,1004.20
2018-12-06T04:46:09.388Z,1004.19
2018-12-06T04:47:09.986Z,1004.21
2018-12-06T04:48:10.588Z,1004.22
2018-12-06T04:49:11.189Z,1004.24
2018-12-06T04:50:11.777Z,1004.24
2018-12-06T04:51:12.381Z,1004.28
2018-12-06T04:52:12.979Z,1004.27
2018-12-06T04:53:13.579Z,1004.27
2018-12-06T04:54:14.180Z,1004.27
2018-12-06T04:55:14.778Z,1004.31
2018-12-06T04:56:15.380Z,1004.24
2018-12-06T04:57:15.980Z,1004.27
2018-12-06T04:58:16.580Z,1004.33
2018-12-06T04:59:17.183Z,1004.28
2018-12-06T05:00:17.782Z,1004.39
2018-12-06T05:01:18.382Z,1004.41
2018-12-06T05:02:18.981Z,1004.33
2018-12-06T05:03:19.573Z,1004.37
2018-12-06T05:04:20.178Z,1004.40
2018-12-06T05:05:20.779Z,1004.39
2018-12-06T05:06:21.373Z,1004.42
2018-12-06T05:07:21.970Z,1004.34
2018-12-06T05:08:22.566Z,1004.42
2018-12-06T05:09:23.158Z,1004.44
2018-12-06T05:10:23.755Z,1004.48
2018-12-06T05:11:24.347Z,1004.51
2018-12-06T05:12:24.940Z,1004.53
2018-12-06T05:13:25.541Z,1004.57
2018-12-06T05:14:26.169Z,1004.58
2018-12-06T05:15:26.742Z,1004.54
2018-12-06T05:16:27.345Z,1004.56
2018-12-06T05:17:27.946Z,1004.57
2018-12-06T05:18:28.561Z,1004.56
2018-12-06T05:19:29.147Z,1004.53
2018-12-06T05:20:29.748Z,1004.54
2018-12-06T05:21:30.346Z,1004.51
2018-12-06T05:22:30.949Z,1004.52
2018-12-06T05:23:31.548Z,1004.50
2018-12-06T05:24:32.138Z,1004.51
2018-12-06T05:25:32.740Z,1004.53
2018-12-06T05:26:33.342Z,1004.57
2018-12-06T05:27:33.940Z,1004.56
2018-12-06T05:28:34.545Z,1004.54
2018-12-06T05:29:35.132Z,1004.55
2018-12-06T05:30:35.730Z,1004.58
2018-12-06T05:31:36.333Z,1004.52
2018-12-06T05:32:36.923Z,1004.57
2018-12-06T05:33:37.520Z,1004.63
2018-12-06T05:34:38.111Z,1004.65
2018-12-06T05:35:38.717Z,1004.69
2018-12-06T05:36:39.419Z,1004.74
2018-12-06T05:37:39.930Z,1004.78
2018-12-06T05:38:41.775Z,1004.80
2018-12-06T05:39:41.119Z,1004.83
2018-12-06T05:40:41.715Z,1004.88
2018-12-06T05:41:42.303Z,1004.83
2018-12-06T05:42:42.901Z,1004.89
2018-12-06T05:43:43.494Z,1004.93
2018-12-06T05:44:44.094Z,1004.86
2018-12-06T05:45:44.696Z,1004.89
2018-12-06T05:46:45.293Z,1004.90
2018-12-06T05:47:45.880Z,1004.91
2018-12-06T05:48:46.486Z,1004.96
2018-12-06T05:49:47.083Z,1004.93
2018-12-06T05:50:47.669Z,1004.92
2018-12-06T05:51:48.271Z,1004.93
2018-12-06T05:52:48.871Z,1004.96
2018-12-06T05:53:49.482Z,1004.90
2018-12-06T05:54:50.073Z,1004.93
2018-12-06T05:55:50.674Z,1004.87
2018-12-06T05:56:51.275Z,1004.94
2018-12-06T05:57:51.876Z,1004.91
2018-12-06T05:58:52.479Z,1004.90
2018-12-06T05:59:53.076Z,1004.94
2018-12-06T06:00:53.666Z,1004.92
2018-12-06T06:01:54.269Z,1004.92
2018-12-06T06:02:54.867Z,1004.95
2018-12-06T06:03:55.476Z,1004.99
2018-12-06T06:04:56.068Z,1004.95
2018-12-06T06:05:56.668Z,1004.95
2018-12-06T06:06:57.260Z,1004.96
2018-12-06T06:07:57.860Z,1004.91
2018-12-06T06:08:58.460Z,1004.92
2018-12-06T06:09:59.058Z,1004.94
2018-12-06T06:11:56.582Z,1004.87
2018-12-06T06:12:57.182Z,1004.92
2018-12-06T06:13:57.780Z,1004.96
2018-12-06T06:14:58.378Z,1004.99
2018-12-06T06:15:58.984Z,1005.06
2018-12-06T06:16:59.584Z,1005.08
2018-12-06T06:18:00.184Z,1005.09
2018-12-06T06:19:00.779Z,1005.09
2018-12-06T06:20:01.370Z,1005.08
2018-12-06T06:21:01.971Z,1005.08
2018-12-06T06:22:02.571Z,1005.07
2018-12-06T06:23:03.165Z,1005.11
2018-12-06T06:24:03.762Z,1005.11
2018-12-06T06:25:04.360Z,1005.10
2018-12-06T06:26:04.960Z,1005.13
2018-12-06T06:27:05.556Z,1005.12
2018-12-06T06:28:06.148Z,1005.18
2018-12-06T06:29:06.745Z,1005.18
2018-12-06T06:30:07.338Z,1005.17
2018-12-06T06:31:07.941Z,1005.23
2018-12-06T06:32:08.545Z,1005.22
2018-12-06T06:33:09.142Z,1005.17
2018-12-06T06:34:09.741Z,1005.21
2018-12-06T06:35:10.341Z,1005.16
2018-12-06T06:36:10.942Z,1005.19
2018-12-06T06:37:11.531Z,1005.27
2018-12-06T06:38:12.132Z,1005.29
2018-12-06T06:39:12.731Z,1005.31
2018-12-06T06:40:13.331Z,1005.33
2018-12-06T06:41:13.927Z,1005.42
2018-12-06T06:42:14.529Z,1005.44
2018-12-06T06:43:15.128Z,1005.45
2018-12-06T06:44:15.719Z,1005.48
2018-12-06T06:45:16.345Z,1005.50
2018-12-06T06:46:16.919Z,1005.53
2018-12-06T06:47:17.517Z,1005.55
2018-12-06T06:48:18.110Z,1005.47
2018-12-06T06:49:18.702Z,1005.47
2018-12-06T06:50:19.301Z,1005.48
2018-12-06T06:51:19.902Z,1005.44
2018-12-06T06:52:20.503Z,1005.45
2018-12-06T06:53:21.108Z,1005.52
2018-12-06T06:54:21.709Z,1005.50
2018-12-06T06:55:22.299Z,1005.55
2018-12-06T06:56:22.901Z,1005.64
2018-12-06T06:57:23.496Z,1005.71
2018-12-06T06:58:24.091Z,1005.71
2018-12-06T06:59:26.202Z,1005.68
2018-12-06T07:00:25.292Z,1005.73
2018-12-06T07:01:25.888Z,1005.64
2018-12-06T07:02:26.482Z,1005.67
2018-12-06T07:03:27.082Z,1005.63
2018-12-06T07:04:27.675Z,1005.69
2018-12-06T07:05:28.269Z,1005.69
2018-12-06T07:06:28.874Z,1005.75
2018-12-06T07:07:29.528Z,1005.77
2018-12-06T07:08:30.125Z,1005.81
2018-12-06T07:09:30.725Z,1005.87
2018-12-06T07:10:31.355Z,1005.92
2018-12-06T07:11:31.924Z,1005.97
2018-12-06T07:12:32.825Z,1006.01
2018-12-06T07:13:33.427Z,1006.04
2018-12-06T07:14:34.030Z,1006.06
2018-12-06T07:15:34.635Z,1006.06
2018-12-06T07:16:35.233Z,1006.09
2018-12-06T07:17:35.834Z,1006.06
2018-12-06T07:18:36.436Z,1006.07
2018-12-06T07:19:37.041Z,1006.09
2018-12-06T07:20:37.690Z,1006.07
2018-12-06T07:21:38.286Z,1006.15
2018-12-06T07:22:38.886Z,1006.14
2018-12-06T07:23:39.483Z,1006.21
2018-12-06T07:24:40.089Z,1006.19
2018-12-06T07:25:46.192Z,1006.20
2018-12-06T07:26:41.449Z,1006.24
2018-12-06T07:27:42.066Z,1006.21
2018-12-06T07:28:42.669Z,1006.29
2018-12-06T07:29:43.271Z,1006.27
2018-12-06T07:30:43.876Z,1006.28
2018-12-06T07:31:44.480Z,1006.28
2018-12-06T07:32:45.084Z,1006.22
2018-12-06T07:33:45.687Z,1006.24
2018-12-06T07:34:46.331Z,1006.24
2018-12-06T07:35:46.928Z,1006.24
2018-12-06T07:36:47.532Z,1006.26
2018-12-06T07:37:48.124Z,1006.34
2018-12-06T07:38:48.728Z,1006.32
2018-12-06T07:39:49.331Z,1006.36
2018-12-06T07:40:50.007Z,1006.34
2018-12-06T07:41:50.539Z,1006.36
2018-12-06T07:42:51.133Z,1006.36
2018-12-06T07:43:51.727Z,1006.37
2018-12-06T07:44:52.324Z,1006.42
2018-12-06T07:45:52.933Z,1006.42
2018-12-06T07:46:53.530Z,1006.42
2018-12-06T07:47:54.132Z,1006.44
2018-12-06T07:48:54.733Z,1006.46
2018-12-06T07:49:55.338Z,1006.48
2018-12-06T07:50:55.937Z,1006.45
2018-12-06T07:51:56.535Z,1006.49
2018-12-06T07:52:57.138Z,1006.44
2018-12-06T07:53:57.739Z,1006.42
2018-12-06T07:54:58.339Z,1006.43
2018-12-06T07:55:58.955Z,1006.46
2018-12-06T07:56:59.547Z,1006.50
2018-12-06T07:58:00.144Z,1006.51
2018-12-06T07:59:00.742Z,1006.45
2018-12-06T08:00:01.350Z,1006.48
2018-12-06T08:01:01.941Z,1006.43
2018-12-06T08:02:02.546Z,1006.47
2018-12-06T08:04:18.626Z,1006.47
2018-12-06T08:05:19.231Z,1006.46
2018-12-06T08:06:19.835Z,1006.47
2018-12-06T08:07:20.492Z,1006.42
2018-12-06T08:08:21.099Z,1006.40
2018-12-06T08:09:21.702Z,1006.44
2018-12-06T08:10:22.295Z,1006.45
2018-12-06T08:11:22.901Z,1006.50
2018-12-06T08:12:23.506Z,1006.42
2018-12-06T08:13:24.115Z,1006.40
2018-12-06T08:14:24.717Z,1006.43
2018-12-06T08:15:25.370Z,1006.36
2018-12-06T08:16:25.966Z,1006.36
2018-12-06T08:17:26.572Z,1006.38
2018-12-06T08:18:27.181Z,1006.35
2018-12-06T08:19:27.784Z,1006.34
2018-12-06T08:20:28.391Z,1006.33
2018-12-06T08:21:28.995Z,1006.37
2018-12-06T08:22:29.601Z,1006.41
2018-12-06T08:23:30.200Z,1006.42
2018-12-06T08:24:30.795Z,1006.38
2018-12-06T08:25:31.397Z,1006.47
2018-12-06T08:26:31.998Z,1006.44
2018-12-06T08:27:32.593Z,1006.49
2018-12-06T08:28:33.203Z,1006.51
2018-12-06T08:29:33.805Z,1006.46
2018-12-06T08:30:34.418Z,1006.47
2018-12-06T08:31:35.019Z,1006.47
2018-12-06T08:32:35.621Z,1006.54
2018-12-06T08:33:36.221Z,1006.59
2018-12-06T08:34:36.821Z,1006.54
2018-12-06T08:35:37.423Z,1006.61
2018-12-06T08:36:38.036Z,1006.64
2018-12-06T08:38:54.120Z,1006.59
2018-12-06T08:39:54.723Z,1006.52
2018-12-06T08:40:55.330Z,1006.53
2018-12-06T08:41:55.930Z,1006.54
2018-12-06T08:42:56.535Z,1006.49
2018-12-06T08:43:57.142Z,1006.55
2018-12-06T08:44:57.746Z,1006.48
2018-12-06T08:45:58.341Z,1006.48
2018-12-06T08:46:58.952Z,1006.37
2018-12-06T08:47:59.555Z,1006.35
2018-12-06T08:49:03.077Z,1006.35
2018-12-06T08:50:00.770Z,1006.35
2018-12-06T08:51:01.359Z,1006.42
2018-12-06T08:52:01.966Z,1006.33
2018-12-06T08:53:02.572Z,1006.29
2018-12-06T08:54:03.172Z,1006.26
2018-12-06T08:55:03.778Z,1006.21
2018-12-06T08:56:04.384Z,1006.22
2018-12-06T08:57:04.995Z,1006.20
2018-12-06T08:58:05.581Z,1006.20
2018-12-06T08:59:06.185Z,1006.17
2018-12-06T09:00:06.793Z,1006.16
2018-12-06T09:01:08.556Z,1006.18
2018-12-06T09:02:08.009Z,1006.07
2018-12-06T09:03:08.607Z,1006.04
2018-12-06T09:04:09.218Z,1006.04
2018-12-06T09:05:09.811Z,1006.01
2018-12-06T09:06:10.413Z,1006.05
2018-12-06T09:07:11.265Z,1006.03
2018-12-06T09:08:11.786Z,1006.04
2018-12-06T09:09:12.391Z,1005.99
2018-12-06T09:10:13.002Z,1005.98
2018-12-06T09:11:13.651Z,1005.96
2018-12-06T09:12:14.254Z,1006.00
2018-12-06T09:13:14.857Z,1006.00
2018-12-06T09:14:15.466Z,1006.10
2018-12-06T09:15:16.069Z,1006.15
2018-12-06T09:16:16.668Z,1006.14
2018-12-06T09:17:17.282Z,1006.23
2018-12-06T09:18:17.883Z,1006.22
2018-12-06T09:19:18.485Z,1006.26
2018-12-06T09:20:19.083Z,1006.30
2018-12-06T09:21:19.690Z,1006.32
2018-12-06T09:22:20.292Z,1006.36
2018-12-06T09:23:20.896Z,1006.41
2018-12-06T09:24:21.506Z,1006.47
2018-12-06T09:25:22.119Z,1006.51
2018-12-06T09:26:22.727Z,1006.53
2018-12-06T09:27:23.335Z,1006.53
2018-12-06T09:28:23.942Z,1006.56
2018-12-06T09:29:24.554Z,1006.56
2018-12-06T09:30:25.148Z,1006.62
2018-12-06T09:31:25.751Z,1006.59
2018-12-06T09:32:26.362Z,1006.61
2018-12-06T09:33:26.967Z,1006.67
2018-12-06T09:34:27.569Z,1006.67
2018-12-06T09:35:28.177Z,1006.67
2018-12-06T09:36:28.787Z,1006.67
2018-12-06T09:37:29.394Z,1006.69
2018-12-06T09:38:30.011Z,1006.71
2018-12-06T09:39:30.605Z,1006.68
2018-12-06T09:40:31.215Z,1006.77
2018-12-06T09:41:31.894Z,1006.78
2018-12-06T09:42:32.493Z,1006.78
2018-12-06T09:43:33.122Z,1006.79
2018-12-06T09:44:33.734Z,1006.71
2018-12-06T09:45:34.339Z,1006.73
2018-12-06T09:46:34.945Z,1006.74
2018-12-06T09:47:35.548Z,1006.76
2018-12-06T09:48:36.162Z,1006.74
2018-12-06T09:49:36.770Z,1006.83
2018-12-06T09:50:37.380Z,1006.83
2018-12-06T09:51:37.988Z,1006.91
2018-12-06T09:52:38.613Z,1006.90
2018-12-06T09:53:39.214Z,1006.94
2018-12-06T09:54:39.807Z,1007.00
2018-12-06T09:55:40.417Z,1007.02
2018-12-06T09:56:41.029Z,1007.04
2018-12-06T09:57:41.637Z,1007.01
2018-12-06T09:58:42.245Z,1007.01
2018-12-06T09:59:42.869Z,1006.92
2018-12-06T10:00:43.462Z,1006.98
2018-12-06T10:01:44.091Z,1006.91
2018-12-06T10:02:44.688Z,1006.98
2018-12-06T10:03:45.500Z,1006.99
2018-12-06T10:04:46.188Z,1007.01
2018-12-06T10:05:46.830Z,1006.98
2018-12-06T10:06:47.442Z,1006.97
2018-12-06T10:07:48.026Z,1006.98
2018-12-06T10:08:48.661Z,1006.93
2018-12-06T10:09:49.267Z,1006.88
2018-12-06T10:10:49.876Z,1006.86
2018-12-06T10:11:50.472Z,1006.91
2018-12-06T10:12:51.080Z,1006.87
2018-12-06T10:13:51.711Z,1006.92
2018-12-06T10:14:52.706Z,1006.94
2018-12-06T10:15:53.842Z,1006.86
2018-12-06T10:16:54.412Z,1006.85
2018-12-06T10:17:55.580Z,1006.87
2018-12-06T10:18:56.215Z,1006.89
2018-12-06T10:19:56.836Z,1006.96
2018-12-06T10:20:57.493Z,1006.94
2018-12-06T10:21:58.121Z,1006.92
2018-12-06T10:22:58.780Z,1007.00
2018-12-06T10:23:59.464Z,1007.00
2018-12-06T10:25:00.259Z,1007.02
2018-12-06T10:26:00.866Z,1007.05
2018-12-06T10:27:01.474Z,1007.06
2018-12-06T10:28:02.082Z,1007.05
2018-12-06T10:29:02.682Z,1007.06
2018-12-06T10:30:03.291Z,1007.05
2018-12-06T10:31:03.907Z,1007.07
2018-12-06T10:32:04.532Z,1007.13
2018-12-06T10:33:05.130Z,1007.03
2018-12-06T10:34:05.736Z,1007.00
2018-12-06T10:35:06.345Z,1006.98
2018-12-06T10:36:06.952Z,1006.93
2018-12-06T10:37:07.552Z,1006.93
2018-12-06T10:38:08.163Z,1006.90
2018-12-06T10:39:08.765Z,1006.85
2018-12-06T10:40:09.365Z,1006.82
2018-12-06T10:41:09.979Z,1006.81
2018-12-06T10:42:10.583Z,1006.84
2018-12-06T10:43:11.196Z,1006.91
2018-12-06T10:44:11.795Z,1006.91
2018-12-06T10:45:12.391Z,1006.93
2018-12-06T10:46:13.004Z,1006.95
2018-12-06T10:47:13.685Z,1006.94
2018-12-06T10:48:14.232Z,1006.96
2018-12-06T10:49:14.823Z,1007.00
2018-12-06T10:50:15.443Z,1006.96
2018-12-06T10:51:16.044Z,1007.00
2018-12-06T10:52:16.656Z,1006.97
2018-12-06T10:53:17.270Z,1007.01
2018-12-06T10:54:17.876Z,1007.03
2018-12-06T10:55:18.481Z,1007.02
2018-12-06T10:56:19.092Z,1007.02
2018-12-06T10:57:19.692Z,1007.01
2018-12-06T10:58:20.300Z,1006.99
2018-12-06T10:59:20.906Z,1006.98
2018-12-06T11:00:21.512Z,1006.97
2018-12-06T11:01:22.118Z,1006.94
2018-12-06T11:02:22.729Z,1006.95
2018-12-06T11:03:23.338Z,1006.99
2018-12-06T11:04:23.949Z,1006.96
2018-12-06T11:05:24.556Z,1006.91
2018-12-06T11:06:25.167Z,1006.96
2018-12-06T11:07:25.777Z,1006.99
2018-12-06T11:08:26.388Z,1006.98
2018-12-06T11:09:27.018Z,1007.05
2018-12-06T11:10:27.600Z,1007.02
2018-12-06T11:11:28.207Z,1007.09
2018-12-06T11:12:28.814Z,1007.15
2018-12-06T11:13:29.423Z,1007.10
2018-12-06T11:14:30.033Z,1007.12
2018-12-06T11:15:30.664Z,1007.14
2018-12-06T11:16:31.251Z,1007.14
2018-12-06T11:17:31.848Z,1007.11
2018-12-06T11:18:32.449Z,1007.21
2018-12-06T11:19:33.048Z,1007.24
2018-12-06T11:20:33.653Z,1007.22
2018-12-06T11:21:34.258Z,1007.24
2018-12-06T11:22:34.854Z,1007.24
2018-12-06T11:23:35.459Z,1007.19
2018-12-06T11:24:36.066Z,1007.27
2018-12-06T11:25:36.676Z,1007.26
2018-12-06T11:26:37.282Z,1007.27
2018-12-06T11:27:37.893Z,1007.23
2018-12-06T11:28:38.496Z,1007.25
2018-12-06T11:29:39.101Z,1007.18
2018-12-06T11:30:39.713Z,1007.20
2018-12-06T11:31:40.321Z,1007.15
2018-12-06T11:32:40.919Z,1007.22
2018-12-06T11:33:41.522Z,1007.23
2018-12-06T11:34:42.180Z,1007.20
2018-12-06T11:35:42.792Z,1007.22
2018-12-06T11:36:43.390Z,1007.26
2018-12-06T11:37:43.999Z,1007.26
2018-12-06T11:38:44.608Z,1007.26
2018-12-06T11:39:45.216Z,1007.26
2018-12-06T11:40:45.814Z,1007.21
2018-12-06T11:41:46.425Z,1007.15
2018-12-06T11:42:47.037Z,1007.18
2018-12-06T11:43:47.637Z,1007.16
2018-12-06T11:44:48.240Z,1007.13
2018-12-06T11:45:48.880Z,1007.19
2018-12-06T11:46:49.478Z,1007.18
2018-12-06T11:47:50.076Z,1007.17
2018-12-06T11:48:50.686Z,1007.25
2018-12-06T11:49:51.292Z,1007.14
2018-12-06T11:50:51.905Z,1007.21
2018-12-06T11:51:52.502Z,1007.21
2018-12-06T11:52:53.115Z,1007.11
2018-12-06T11:53:53.711Z,1007.10
2018-12-06T11:54:54.324Z,1007.04
2018-12-06T11:55:54.912Z,1007.04
2018-12-06T11:56:55.521Z,1007.03
2018-12-06T11:57:56.120Z,1007.01
2018-12-06T11:58:56.803Z,1007.03
2018-12-06T11:59:57.321Z,1007.07
2018-12-06T12:00:57.929Z,1007.07
2018-12-06T12:01:58.538Z,1007.07
2018-12-06T12:02:59.146Z,1007.08
2018-12-06T12:03:59.756Z,1007.11
2018-12-06T12:05:00.362Z,1007.08
2018-12-06T12:06:00.968Z,1007.09
2018-12-06T12:07:01.570Z,1007.10
2018-12-06T12:08:02.166Z,1007.13
2018-12-06T12:09:02.775Z,1007.15
2018-12-06T12:10:03.380Z,1007.06
2018-12-06T12:11:03.988Z,1007.09
2018-12-06T12:12:04.593Z,1007.05
2018-12-06T12:13:05.203Z,1007.08
2018-12-06T12:14:05.813Z,1007.08
2018-12-06T12:15:06.417Z,1007.11
2018-12-06T12:16:07.028Z,1007.06